Time;durP1;ratioP1;P1;durP2;ratioP2;P2;SDS_P1;SDS_P2;PMS_P1;PMS_P2;Temp;Humidity;BMP_temperature;BMP_pressure;BME280_temperature;BME280_humidity;BME280_pressure;Samples;Min_cycle;Max_cycle;Signal;HPM_P1;HPM_P2
2023/01/30 00:00:54;;;;;;;12.47;10.30;;;;;;;-1.30;100.00;98789.66;5075048;28;20928;-70
2023/01/30 00:03:20;;;;;;;12.40;10.43;;;;;;;-1.33;100.00;98784.72;5075200;28;20795;-70
2023/01/30 00:05:47;;;;;;;13.73;10.10;;;;;;;-1.34;100.00;98767.44;5075163;28;20429;-71
2023/01/30 00:08:14;;;;;;;12.90;10.40;;;;;;;-1.37;100.00;98762.47;5075198;28;20804;-70
2023/01/30 00:10:40;;;;;;;13.57;10.50;;;;;;;-1.42;100.00;98756.81;5075114;28;20441;-70
2023/01/30 00:13:06;;;;;;;14.40;10.50;;;;;;;-1.45;100.00;98746.63;5074674;28;20473;-70
2023/01/30 00:15:33;;;;;;;13.60;10.47;;;;;;;-1.53;100.00;98733.38;5074986;28;20555;-70
2023/01/30 00:17:59;;;;;;;14.37;10.43;;;;;;;-1.66;100.00;98726.72;5074947;28;20443;-70
2023/01/30 00:20:26;;;;;;;12.50;10.17;;;;;;;-1.67;100.00;98725.06;5074595;28;20948;-70
2023/01/30 00:22:52;;;;;;;11.87;10.20;;;;;;;-1.67;100.00;98731.09;5074469;28;20468;-71
2023/01/30 00:25:18;;;;;;;13.97;10.77;;;;;;;-1.67;100.00;98743.31;5074456;28;20521;-71
2023/01/30 00:27:45;;;;;;;12.93;10.20;;;;;;;-1.63;100.00;98739.50;5074484;28;20796;-70
2023/01/30 00:30:11;;;;;;;11.67;9.70;;;;;;;-1.70;100.00;98739.19;5074737;28;20528;-70
2023/01/30 00:32:38;;;;;;;14.73;10.53;;;;;;;-1.69;100.00;98733.03;5074577;28;20816;-70
2023/01/30 00:35:05;;;;;;;14.10;10.27;;;;;;;-1.55;100.00;98724.03;5074512;28;20477;-71
2023/01/30 00:37:32;;;;;;;13.53;10.50;;;;;;;-1.72;100.00;98709.81;5074583;28;20441;-70
2023/01/30 00:39:58;;;;;;;13.40;10.67;;;;;;;-1.76;100.00;98713.59;5074531;28;20442;-71
2023/01/30 00:47:55;;;;;;;12.83;10.63;;;;;;;-1.52;100.00;98721.19;5074464;28;20392;-71
2023/01/30 00:50:21;;;;;;;14.03;10.83;;;;;;;-1.43;100.00;98736.06;5074005;28;20437;-71
2023/01/30 00:52:48;;;;;;;15.07;10.63;;;;;;;-1.48;100.00;98746.88;5073894;28;20800;-70
2023/01/30 00:55:15;;;;;;;15.03;10.17;;;;;;;-1.43;100.00;98744.72;5074158;28;20837;-70
2023/01/30 00:57:41;;;;;;;13.80;11.07;;;;;;;-1.38;100.00;98758.22;5073959;28;20773;-70
2023/01/30 01:00:08;;;;;;;13.23;9.83;;;;;;;-1.38;100.00;98768.66;5074187;28;20815;-70
2023/01/30 01:02:35;;;;;;;11.90;9.97;;;;;;;-1.44;100.00;98776.94;5074027;28;20461;-70
2023/01/30 01:05:01;;;;;;;12.57;9.30;;;;;;;-1.37;100.00;98793.75;5074060;28;20435;-70
2023/01/30 01:07:28;;;;;;;15.73;11.20;;;;;;;-1.48;100.00;98806.84;5074035;28;20433;-71
2023/01/30 01:09:54;;;;;;;14.53;10.63;;;;;;;-1.51;100.00;98804.50;5073978;28;20442;-70
2023/01/30 01:12:20;;;;;;;14.07;10.47;;;;;;;-1.56;100.00;98804.06;5073958;28;20469;-70
2023/01/30 01:14:47;;;;;;;15.00;11.43;;;;;;;-1.67;100.00;98800.66;5073546;28;20491;-70
2023/01/30 01:17:13;;;;;;;14.10;10.63;;;;;;;-1.67;100.00;98795.47;5073511;28;20445;-70
2023/01/30 01:19:39;;;;;;;16.97;11.67;;;;;;;-1.67;100.00;98803.28;5073468;28;20443;-71
2023/01/30 01:22:06;;;;;;;13.63;10.73;;;;;;;-1.73;100.00;98791.56;5073668;28;20461;-70
2023/01/30 01:24:32;;;;;;;13.80;10.80;;;;;;;-1.76;100.00;98804.03;5073757;28;20441;-70
2023/01/30 01:26:58;;;;;;;15.97;11.30;;;;;;;-1.80;100.00;98803.41;5073706;28;20459;-70
2023/01/30 01:29:25;;;;;;;13.37;10.97;;;;;;;-1.88;100.00;98798.03;5073733;28;20445;-70
2023/01/30 01:31:51;;;;;;;15.73;11.43;;;;;;;-1.83;100.00;98815.88;5073675;28;20491;-71
2023/01/30 01:34:17;;;;;;;15.37;11.73;;;;;;;-1.83;100.00;98823.69;5073565;28;20487;-70
2023/01/30 01:36:44;;;;;;;15.27;11.67;;;;;;;-1.77;100.00;98820.59;5073622;28;20441;-70
2023/01/30 01:39:10;;;;;;;13.07;10.07;;;;;;;-1.71;100.00;98809.69;5073587;28;20437;-71
2023/01/30 01:41:36;;;;;;;14.43;11.07;;;;;;;-1.82;100.00;98787.09;5073577;28;20462;-70
2023/01/30 01:44:10;;;;;;;14.00;10.80;;;;;;;-1.81;100.00;98798.34;5073589;28;20437;-70
2023/01/30 01:46:37;;;;;;;13.70;11.00;;;;;;;-1.84;100.00;98793.38;5073407;28;20210;-70
2023/01/30 01:49:12;;;;;;;13.93;10.97;;;;;;;-1.86;100.00;98795.28;5073015;28;20949;-71
2023/01/30 01:51:46;;;;;;;13.63;10.60;;;;;;;-1.72;100.00;98802.81;5073478;28;20452;-70
2023/01/30 01:54:18;;;;;;;12.77;10.30;;;;;;;-1.77;100.00;98808.41;5071451;28;20432;-70
2023/01/30 01:56:48;;;;;;;15.23;11.00;;;;;;;-1.68;100.00;98788.56;5074069;28;20421;-70
2023/01/30 01:59:32;;;;;;;16.20;11.00;;;;;;;-1.69;100.00;98785.16;5073006;28;20437;-70
2023/01/30 02:02:05;;;;;;;12.43;10.73;;;;;;;-1.72;100.00;98785.38;5073237;28;20468;-70
2023/01/30 02:07:20;;;;;;;14.87;10.60;;;;;;;-1.74;100.00;98800.34;5073121;28;20409;-71
2023/01/30 02:09:47;;;;;;;12.80;10.47;;;;;;;-1.74;100.00;98805.56;5073010;28;20987;-70
2023/01/30 02:12:15;;;;;;;13.83;10.37;;;;;;;-1.69;100.00;98813.81;5072791;28;21015;-71
2023/01/30 02:14:43;;;;;;;15.33;11.20;;;;;;;-1.64;100.00;98790.81;5073275;28;20472;-70
2023/01/30 02:17:09;;;;;;;13.43;11.00;;;;;;;-1.65;100.00;98789.16;5073702;28;20437;-70
2023/01/30 02:19:38;;;;;;;12.80;10.43;;;;;;;-1.69;100.00;98787.75;5072889;28;20955;-71
2023/01/30 02:22:33;;;;;;;14.77;11.03;;;;;;;-1.74;100.00;98771.66;5073071;28;20488;-70
2023/01/30 02:25:18;;;;;;;16.47;11.03;;;;;;;-1.78;100.00;98772.88;5073213;28;20424;-71
2023/01/30 02:27:59;;;;;;;14.80;11.43;;;;;;;-1.85;100.00;98761.28;5073242;28;20429;-70
2023/01/30 02:30:35;;;;;;;14.03;10.10;;;;;;;-1.93;100.00;98752.44;5073221;28;20425;-70
2023/01/30 02:33:18;;;;;;;14.47;10.43;;;;;;;-1.97;100.00;98751.88;5073034;28;20452;-70
2023/01/30 02:36:06;;;;;;;14.13;10.83;;;;;;;-1.97;100.00;98769.25;5073010;28;20464;-70
2023/01/30 02:39:10;;;;;;;15.30;12.13;;;;;;;-1.96;100.00;98783.94;5071647;28;20922;-70
2023/01/30 02:41:48;;;;;;;15.33;10.27;;;;;;;-1.84;100.00;98768.16;5066005;28;20468;-70
2023/01/30 02:44:34;;;;;;;15.30;10.93;;;;;;;-1.80;100.00;98727.03;5073023;28;20458;-70
2023/01/30 02:47:06;;;;;;;13.77;11.00;;;;;;;-1.76;100.00;98718.81;5073002;28;20778;-70
2023/01/30 02:49:40;;;;;;;13.13;10.30;;;;;;;-1.92;100.00;98734.06;5072575;28;20425;-71
2023/01/30 02:52:09;;;;;;;14.30;10.67;;;;;;;-1.89;100.00;98751.25;5072874;28;20464;-70
2023/01/30 02:54:35;;;;;;;13.43;11.03;;;;;;;-1.83;100.00;98737.69;5072838;28;20499;-70
2023/01/30 02:57:02;;;;;;;12.87;10.00;;;;;;;-1.88;100.00;98734.66;5072818;28;20445;-70
2023/01/30 02:59:45;;;;;;;14.67;10.73;;;;;;;-1.93;100.00;98722.00;5072882;28;20438;-71
2023/01/30 03:02:33;;;;;;;14.63;11.37;;;;;;;-1.92;100.00;98715.00;5072791;28;20468;-70
2023/01/30 03:05:44;;;;;;;13.00;10.43;;;;;;;-1.98;100.00;98708.50;5073668;28;20437;-70
2023/01/30 03:08:24;;;;;;;14.03;11.13;;;;;;;-1.99;100.00;98704.25;5076825;28;20424;-70
2023/01/30 03:11:03;;;;;;;14.17;10.77;;;;;;;-1.86;100.00;98704.91;5076283;28;20481;-70
2023/01/30 03:13:43;;;;;;;15.77;10.63;;;;;;;-1.86;100.00;98691.88;5075898;28;20457;-70
2023/01/30 03:16:15;;;;;;;14.10;10.17;;;;;;;-1.85;100.00;98682.28;5075824;28;20971;-71
2023/01/30 03:18:43;;;;;;;15.73;12.00;;;;;;;-1.75;100.00;98670.16;5076154;28;20425;-71
2023/01/30 03:21:10;;;;;;;13.83;11.20;;;;;;;-1.68;100.00;98646.03;5075890;28;20437;-70
2023/01/30 03:23:37;;;;;;;14.07;10.93;;;;;;;-1.64;100.00;98634.41;5075993;28;20447;-71
2023/01/30 03:26:12;;;;;;;14.83;10.67;;;;;;;-1.57;100.00;98624.28;5076723;28;20441;-70
2023/01/30 03:28:39;;;;;;;14.13;10.93;;;;;;;-1.55;100.00;98594.53;5075919;28;20429;-71
2023/01/30 03:31:06;;;;;;;15.50;11.20;;;;;;;-1.45;100.00;98577.13;5075815;28;20437;-71
2023/01/30 03:33:32;;;;;;;14.17;10.60;;;;;;;-1.24;100.00;98571.84;5075884;28;20442;-71
2023/01/30 03:35:58;;;;;;;14.77;11.20;;;;;;;-1.34;100.00;98576.22;5075745;28;20481;-71
2023/01/30 03:38:25;;;;;;;12.67;8.97;;;;;;;-1.20;100.00;98584.50;5075490;28;20442;-71
2023/01/30 03:40:51;;;;;;;13.27;10.30;;;;;;;-1.21;100.00;98585.44;5075802;28;20441;-70
2023/01/30 03:43:17;;;;;;;13.57;10.13;;;;;;;-1.11;100.00;98590.69;5075648;28;20544;-70
2023/01/30 03:45:44;;;;;;;11.60;9.47;;;;;;;-1.10;100.00;98603.63;5075311;28;20446;-71
2023/01/30 03:48:10;;;;;;;11.93;9.37;;;;;;;-1.09;100.00;98596.59;5075120;28;20444;-70
2023/01/30 03:50:36;;;;;;;11.47;8.90;;;;;;;-1.05;100.00;98617.09;5074986;28;20950;-71
2023/01/30 03:53:03;;;;;;;12.10;9.17;;;;;;;-0.95;100.00;98632.78;5075433;28;20469;-71
2023/01/30 03:55:29;;;;;;;11.63;9.63;;;;;;;-0.89;100.00;98634.84;5075370;28;20499;-71
2023/01/30 03:57:57;;;;;;;12.97;9.57;;;;;;;-0.91;100.00;98621.94;5075455;28;20430;-71
2023/01/30 04:00:23;;;;;;;11.73;9.13;;;;;;;-0.84;100.00;98625.66;5075110;28;20472;-70
2023/01/30 04:02:50;;;;;;;10.90;9.03;;;;;;;-0.80;100.00;98619.19;5075143;28;20452;-71
2023/01/30 04:05:17;;;;;;;10.87;8.80;;;;;;;-0.74;100.00;98617.84;5074964;28;20441;-71
2023/01/30 04:07:43;;;;;;;10.30;8.80;;;;;;;-0.78;100.00;98625.13;5074997;28;20452;-70
2023/01/30 04:10:10;;;;;;;9.80;7.90;;;;;;;-0.58;100.00;98626.78;5075123;28;20441;-71
2023/01/30 04:12:37;;;;;;;10.57;8.00;;;;;;;-0.51;99.66;98625.28;5074735;28;20846;-70
2023/01/30 04:15:03;;;;;;;9.53;8.13;;;;;;;-0.53;100.00;98616.75;5074931;28;20228;-70
2023/01/30 04:17:29;;;;;;;9.87;8.17;;;;;;;-0.46;98.31;98623.09;5074189;28;20805;-70
2023/01/30 04:19:56;;;;;;;10.23;8.20;;;;;;;-0.48;99.89;98622.41;5074888;28;20204;-70
2023/01/30 04:22:22;;;;;;;11.37;8.80;;;;;;;-0.47;98.89;98618.00;5074711;28;20464;-71
2023/01/30 04:24:49;;;;;;;10.43;7.77;;;;;;;-0.43;97.02;98609.78;5074612;28;20208;-70
2023/01/30 04:27:15;;;;;;;9.23;7.63;;;;;;;-0.47;97.92;98613.63;5074490;28;20257;-70
2023/01/30 04:29:41;;;;;;;8.93;7.33;;;;;;;-0.38;95.99;98618.03;5074638;28;20204;-70
2023/01/30 04:32:08;;;;;;;8.80;7.33;;;;;;;-0.41;96.91;98613.06;5074061;28;20462;-70
2023/01/30 04:34:34;;;;;;;12.03;7.90;;;;;;;-0.34;95.62;98614.19;5074302;28;20211;-70
2023/01/30 04:37:01;;;;;;;9.27;7.57;;;;;;;-0.25;94.72;98615.13;5074224;28;20221;-70
2023/01/30 04:39:27;;;;;;;8.77;6.70;;;;;;;-0.17;94.11;98605.63;5074804;28;20230;-70
2023/01/30 04:41:53;;;;;;;8.00;6.90;;;;;;;-0.21;94.55;98619.91;5074183;28;20602;-70
2023/01/30 04:44:20;;;;;;;8.60;7.00;;;;;;;-0.13;93.52;98609.59;5074219;28;20224;-70
2023/01/30 04:46:46;;;;;;;7.83;6.57;;;;;;;-0.12;93.90;98607.84;5073871;28;20200;-70
2023/01/30 04:49:13;;;;;;;8.80;6.90;;;;;;;-0.08;94.39;98615.25;5073863;28;20695;-70
2023/01/30 04:51:39;;;;;;;8.97;7.40;;;;;;;-0.12;95.88;98613.06;5073786;28;20738;-70
2023/01/30 04:54:06;;;;;;;7.97;6.87;;;;;;;-0.10;93.52;98614.56;5073828;28;20208;-70
2023/01/30 04:56:32;;;;;;;8.00;6.77;;;;;;;-0.03;93.71;98605.19;5073806;28;20220;-71
2023/01/30 04:58:59;;;;;;;8.00;6.60;;;;;;;-0.02;93.39;98601.63;5073718;28;20299;-70
2023/01/30 05:01:31;;;;;;;8.30;6.70;;;;;;;-0.01;93.80;98600.66;5073869;28;20483;-70
2023/01/30 05:03:57;;;;;;;7.93;6.93;;;;;;;0.05;93.07;98594.06;5073851;28;20220;-70
2023/01/30 05:06:24;;;;;;;8.90;7.20;;;;;;;0.07;92.53;98586.88;5073707;28;20577;-70
2023/01/30 05:08:53;;;;;;;7.73;6.67;;;;;;;0.08;93.26;98585.91;5073363;28;20565;-70
2023/01/30 05:11:20;;;;;;;10.37;7.17;;;;;;;0.15;92.64;98587.03;5073453;28;20239;-70
2023/01/30 05:13:46;;;;;;;7.73;6.27;;;;;;;0.12;93.09;98589.09;5073437;28;20213;-70
2023/01/30 05:16:15;;;;;;;8.50;6.43;;;;;;;0.15;92.86;98585.22;5073962;28;20220;-70
2023/01/30 05:18:41;;;;;;;7.97;6.60;;;;;;;0.22;92.04;98575.84;5073363;28;20212;-70
2023/01/30 05:21:10;;;;;;;8.33;6.50;;;;;;;0.22;92.63;98574.22;5073685;28;20235;-70
2023/01/30 05:23:37;;;;;;;8.10;6.80;;;;;;;0.12;94.18;98563.75;5073239;28;20205;-70
2023/01/30 05:26:03;;;;;;;10.00;6.93;;;;;;;0.16;92.96;98565.13;5073521;28;20208;-70
2023/01/30 05:28:30;;;;;;;8.03;6.63;;;;;;;0.11;93.54;98569.97;5073258;28;20214;-70
2023/01/30 05:31:12;;;;;;;8.27;6.77;;;;;;;0.08;94.89;98566.81;5073314;28;20682;-70
2023/01/30 05:33:40;;;;;;;6.87;6.17;;;;;;;0.14;93.25;98557.44;5073936;28;20212;-71
2023/01/30 05:36:07;;;;;;;7.57;6.60;;;;;;;0.12;94.63;98553.31;5072916;28;20561;-70
2023/01/30 05:38:33;;;;;;;9.27;7.30;;;;;;;0.15;93.04;98568.72;5072810;28;20682;-70
2023/01/30 05:41:02;;;;;;;9.57;6.63;;;;;;;0.13;91.73;98562.78;5073143;28;20204;-70
2023/01/30 05:43:29;;;;;;;8.50;6.73;;;;;;;0.12;92.16;98566.38;5072931;28;20224;-70
2023/01/30 05:45:57;;;;;;;8.13;6.60;;;;;;;0.10;92.17;98555.25;5072995;28;20204;-70
2023/01/30 05:48:24;;;;;;;8.30;6.37;;;;;;;0.12;92.33;98553.31;5072763;28;20567;-70
2023/01/30 05:50:51;;;;;;;7.70;6.77;;;;;;;0.13;92.62;98559.38;5072181;28;20227;-70
2023/01/30 05:53:19;;;;;;;8.77;6.73;;;;;;;0.19;92.37;98557.03;5072542;28;20227;-70
2023/01/30 05:55:45;;;;;;;8.83;7.07;;;;;;;0.23;91.67;98564.41;5072883;28;20228;-70
2023/01/30 05:58:12;;;;;;;7.93;6.70;;;;;;;0.21;92.53;98560.31;5072879;28;20200;-70
2023/01/30 06:00:38;;;;;;;8.47;6.20;;;;;;;0.28;90.75;98574.47;5072605;28;20208;-70
2023/01/30 06:03:05;;;;;;;8.47;6.57;;;;;;;0.24;91.60;98568.69;5072853;28;20224;-70
2023/01/30 06:05:31;;;;;;;8.57;6.63;;;;;;;0.21;91.93;98562.91;5072691;28;20207;-70
2023/01/30 06:07:57;;;;;;;8.40;6.77;;;;;;;0.28;91.56;98564.81;5072578;28;20201;-70
2023/01/30 06:10:24;;;;;;;8.53;6.33;;;;;;;0.32;91.43;98554.91;5073001;28;20205;-71
2023/01/30 06:12:50;;;;;;;8.00;6.67;;;;;;;0.36;91.42;98566.72;5072177;28;20239;-70
2023/01/30 06:15:17;;;;;;;7.90;6.47;;;;;;;0.33;92.13;98556.56;5072280;28;20299;-70
2023/01/30 06:17:43;;;;;;;8.27;7.00;;;;;;;0.35;92.29;98551.19;5072579;28;20295;-70
2023/01/30 06:20:11;;;;;;;6.90;6.20;;;;;;;0.36;91.88;98547.59;5072880;28;20216;-70
2023/01/30 06:22:38;;;;;;;8.30;6.53;;;;;;;0.33;92.69;98541.69;5072504;28;20703;-71
2023/01/30 06:25:05;;;;;;;7.57;6.60;;;;;;;0.30;91.92;98540.34;5072367;28;20209;-71
2023/01/30 06:27:31;;;;;;;7.80;6.50;;;;;;;0.28;92.87;98537.84;5072407;28;20196;-70
2023/01/30 06:29:57;;;;;;;7.83;6.60;;;;;;;0.28;91.97;98539.66;5072154;28;20201;-71
2023/01/30 06:32:24;;;;;;;7.63;6.07;;;;;;;0.27;92.25;98527.53;5072312;28;20690;-71
2023/01/30 06:34:50;;;;;;;6.23;5.30;;;;;;;0.26;92.26;98526.72;5072202;28;20204;-70
2023/01/30 06:37:17;;;;;;;9.23;6.83;;;;;;;0.28;91.76;98521.34;5072062;28;20307;-70
2023/01/30 06:39:43;;;;;;;8.07;6.80;;;;;;;0.32;92.39;98513.88;5072331;28;20216;-70
2023/01/30 06:42:09;;;;;;;8.07;6.70;;;;;;;0.31;93.06;98510.59;5075849;28;20239;-70
2023/01/30 06:44:36;;;;;;;7.30;5.80;;;;;;;0.32;93.17;98517.47;5076211;28;20209;-70
2023/01/30 06:47:02;;;;;;;9.17;6.97;;;;;;;0.33;93.37;98514.72;5075971;28;20203;-70
2023/01/30 06:49:28;;;;;;;8.03;7.23;;;;;;;0.39;91.91;98514.13;5075647;28;20200;-71
2023/01/30 06:51:55;;;;;;;7.07;6.37;;;;;;;0.40;92.15;98514.97;5075362;28;20224;-71
2023/01/30 06:54:21;;;;;;;9.07;7.23;;;;;;;0.42;92.45;98505.16;5075475;28;20210;-70
2023/01/30 06:56:47;;;;;;;8.57;6.33;;;;;;;0.38;93.41;98506.44;5075823;28;20228;-71
2023/01/30 06:59:14;;;;;;;7.00;6.00;;;;;;;0.44;92.33;98511.91;5075698;28;20254;-70
2023/01/30 07:01:40;;;;;;;7.23;6.17;;;;;;;0.47;92.31;98513.41;5075658;28;20319;-70
2023/01/30 07:04:07;;;;;;;6.97;6.10;;;;;;;0.47;92.65;98517.66;5075660;28;20205;-70
2023/01/30 07:06:33;;;;;;;8.03;5.87;;;;;;;0.51;92.17;98523.44;5075868;28;20206;-71
2023/01/30 07:08:59;;;;;;;6.60;5.90;;;;;;;0.61;91.94;98526.00;5075493;28;20676;-71
2023/01/30 07:11:26;;;;;;;6.70;5.97;;;;;;;0.59;92.74;98527.94;5075755;28;20230;-71
2023/01/30 07:13:52;;;;;;;7.40;6.20;;;;;;;0.58;93.32;98534.16;5075187;28;20212;-71
2023/01/30 07:16:19;;;;;;;8.30;5.87;;;;;;;0.52;93.32;98538.16;5074993;28;20232;-71
2023/01/30 07:18:45;;;;;;;7.87;6.23;;;;;;;0.56;94.32;98547.38;5075045;28;20209;-70
2023/01/30 07:21:11;;;;;;;7.43;6.30;;;;;;;0.60;93.23;98548.75;5075307;28;20205;-71
2023/01/30 07:23:38;;;;;;;7.13;5.63;;;;;;;0.65;93.01;98558.75;5075030;28;20204;-70
2023/01/30 07:26:05;;;;;;;6.97;6.27;;;;;;;0.69;92.88;98554.88;5075538;28;20196;-70
2023/01/30 07:28:32;;;;;;;7.20;6.43;;;;;;;0.71;93.31;98566.84;5074460;28;20314;-69
2023/01/30 07:31:02;;;;;;;9.97;5.87;;;;;;;0.73;93.00;98569.31;5075182;28;20200;-72
2023/01/30 07:33:28;;;;;;;8.17;6.13;;;;;;;0.80;93.04;98565.97;5075460;28;20656;-73
2023/01/30 07:36:02;;;;;;;8.30;6.00;;;;;;;0.72;94.55;98565.06;5075086;28;20227;-73
2023/01/30 07:38:35;;;;;;;8.33;5.70;;;;;;;0.82;93.28;98569.28;5075163;28;20188;-72
2023/01/30 07:41:02;;;;;;;6.50;5.73;;;;;;;0.86;93.58;98578.47;5074741;28;20279;-70
2023/01/30 07:43:29;;;;;;;8.17;5.83;;;;;;;0.90;93.99;98579.03;5074895;28;20206;-70
2023/01/30 07:45:56;;;;;;;6.77;5.73;;;;;;;0.93;93.62;98573.47;5074230;28;20733;-70
2023/01/30 07:48:23;;;;;;;7.13;5.60;;;;;;;0.96;93.57;98574.03;5074006;28;20287;-70
2023/01/30 07:50:56;;;;;;;5.70;5.13;;;;;;;1.03;93.55;98582.13;5074002;28;20611;-70
2023/01/30 07:53:23;;;;;;;6.00;5.27;;;;;;;1.06;93.77;98585.28;5073925;28;20231;-70
2023/01/30 07:55:49;;;;;;;6.30;5.27;;;;;;;1.14;93.63;98574.06;5074369;28;20240;-70
2023/01/30 07:58:16;;;;;;;6.43;5.13;;;;;;;1.15;93.58;98575.69;5074360;28;20208;-70
2023/01/30 08:00:43;;;;;;;7.03;5.23;;;;;;;1.17;93.64;98564.09;5074435;28;20300;-70
2023/01/30 08:03:16;;;;;;;7.23;4.70;;;;;;;1.18;94.08;98559.69;5074310;28;20221;-70
2023/01/30 08:05:45;;;;;;;5.17;4.43;;;;;;;1.26;94.05;98563.22;5074052;28;20204;-69
2023/01/30 08:08:12;;;;;;;5.83;5.23;;;;;;;1.26;95.17;98557.16;5073970;28;20303;-70
2023/01/30 08:10:38;;;;;;;5.97;5.13;;;;;;;1.27;93.79;98571.91;5073772;28;20209;-70
2023/01/30 08:13:05;;;;;;;7.57;5.07;;;;;;;1.28;94.56;98571.75;5069520;28;20712;-69
2023/01/30 08:15:32;;;;;;;7.20;5.63;;;;;;;1.38;95.30;98582.16;5053890;28;20273;-69
2023/01/30 08:17:59;;;;;;;8.23;6.10;;;;;;;1.51;95.43;98598.34;5054189;28;20696;-69
2023/01/30 08:20:27;;;;;;;8.53;5.30;;;;;;;1.41;96.94;98594.97;5054600;28;20201;-70
2023/01/30 08:22:54;;;;;;;6.07;5.27;;;;;;;1.32;96.88;98588.84;5054302;28;20226;-69
2023/01/30 08:25:21;;;;;;;5.33;4.80;;;;;;;1.33;98.02;98568.69;5054065;28;20719;-70
2023/01/30 08:27:47;;;;;;;5.80;5.20;;;;;;;1.18;100.00;98578.03;5053879;28;20250;-70
2023/01/30 08:30:14;;;;;;;6.77;5.30;;;;;;;1.14;100.00;98568.81;5053785;28;20209;-71
2023/01/30 08:32:46;;;;;;;6.43;5.47;;;;;;;1.19;100.00;98554.31;5053810;28;20233;-71
2023/01/30 08:35:13;;;;;;;7.53;5.83;;;;;;;1.24;100.00;98541.59;5053696;28;20231;-71
2023/01/30 08:37:40;;;;;;;6.03;5.17;;;;;;;1.35;100.00;98517.78;5053978;28;20221;-71
2023/01/30 08:40:08;;;;;;;6.97;5.33;;;;;;;1.53;100.00;98523.03;5053834;28;20205;-71
2023/01/30 08:42:34;;;;;;;6.07;5.27;;;;;;;1.48;99.26;98538.41;5053469;28;20236;-71
2023/01/30 08:45:01;;;;;;;8.00;5.20;;;;;;;1.49;98.79;98532.19;5053640;28;20571;-71
2023/01/30 08:47:27;;;;;;;6.03;5.30;;;;;;;1.45;98.03;98522.97;5053823;28;20201;-71
2023/01/30 08:49:54;;;;;;;7.33;5.47;;;;;;;1.50;98.73;98528.56;5054161;28;20231;-71
2023/01/30 08:52:20;;;;;;;6.70;5.20;;;;;;;1.50;97.48;98524.16;5054120;28;20229;-71
2023/01/30 08:54:47;;;;;;;6.93;5.67;;;;;;;1.57;97.77;98517.34;5054004;28;20211;-71
2023/01/30 08:57:14;;;;;;;5.77;4.97;;;;;;;1.64;97.71;98522.78;5053810;28;20228;-71
2023/01/30 08:59:41;;;;;;;6.23;5.07;;;;;;;1.71;96.96;98514.16;5053549;28;20665;-71
2023/01/30 09:02:11;;;;;;;6.00;5.40;;;;;;;1.72;96.79;98496.66;5053731;28;20221;-71
2023/01/30 09:04:37;;;;;;;5.23;4.50;;;;;;;1.84;96.26;98496.25;5053562;28;20207;-71
2023/01/30 09:07:04;;;;;;;6.73;5.07;;;;;;;1.96;96.55;98473.22;5053715;28;20201;-71
2023/01/30 09:09:30;;;;;;;5.73;4.83;;;;;;;2.27;95.75;98466.50;5054104;28;20209;-71
2023/01/30 09:11:57;;;;;;;5.20;4.60;;;;;;;2.57;95.14;98469.41;5053139;28;20735;-71
2023/01/30 09:14:23;;;;;;;6.33;4.40;;;;;;;2.64;93.42;98472.22;5053182;28;20641;-71
2023/01/30 09:16:54;;;;;;;5.50;4.37;;;;;;;2.86;93.01;98476.88;5052955;28;20224;-71
2023/01/30 09:19:22;;;;;;;4.77;4.03;;;;;;;2.73;93.53;98479.97;5053931;28;20284;-68
2023/01/30 09:21:50;;;;;;;5.70;4.00;;;;;;;2.72;92.65;98480.97;5053460;28;20233;-71
2023/01/30 09:24:16;;;;;;;5.67;4.10;;;;;;;2.66;92.76;98493.91;5053579;28;20205;-72
2023/01/30 09:26:44;;;;;;;4.43;3.90;;;;;;;2.66;93.23;98486.81;5053452;28;20208;-72
2023/01/30 09:29:13;;;;;;;4.80;4.13;;;;;;;2.61;93.35;98480.41;5053330;28;20258;-71
2023/01/30 09:31:39;;;;;;;3.90;3.50;;;;;;;2.52;94.09;98481.38;5053192;28;20311;-71
2023/01/30 09:34:06;;;;;;;5.13;4.10;;;;;;;2.50;94.76;98475.44;5053426;28;20205;-71
2023/01/30 09:36:32;;;;;;;4.40;4.00;;;;;;;2.51;95.55;98482.34;5053168;28;20229;-71
2023/01/30 09:38:59;;;;;;;4.47;3.67;;;;;;;2.53;95.84;98483.03;5052948;28;20208;-71
2023/01/30 09:41:38;;;;;;;4.43;4.00;;;;;;;2.53;95.57;98483.03;5052957;28;20228;-71
2023/01/30 09:44:29;;;;;;;4.63;3.60;;;;;;;2.59;95.63;98477.13;5052643;28;20209;-71
2023/01/30 09:47:00;;;;;;;3.60;3.30;;;;;;;2.77;94.96;98465.56;5053135;28;20217;-71
2023/01/30 09:49:37;;;;;;;4.87;3.73;;;;;;;2.78;95.02;98466.34;5053136;28;20236;-71
2023/01/30 09:52:27;;;;;;;4.93;3.40;;;;;;;2.78;94.86;98469.81;5053439;28;20225;-71
2023/01/30 09:55:02;;;;;;;4.67;3.20;;;;;;;2.84;95.59;98460.47;5052940;28;20193;-71
2023/01/30 09:57:29;;;;;;;3.20;2.90;;;;;;;2.80;95.13;98449.47;5052874;28;20597;-71
2023/01/30 10:00:02;;;;;;;3.17;2.83;;;;;;;2.88;94.69;98443.41;5052809;28;20201;-70
2023/01/30 10:02:33;;;;;;;3.23;2.83;;;;;;;2.92;94.34;98426.34;5052756;28;20586;-71
2023/01/30 10:05:02;;;;;;;3.97;2.53;;;;;;;3.08;94.02;98429.81;5052778;28;20200;-71
2023/01/30 10:08:20;;;;;;;3.93;2.73;;;;;;;3.18;93.63;98427.03;5051698;28;20296;-71
2023/01/30 10:11:01;;;;;;;3.00;2.70;;;;;;;3.25;92.91;98423.56;5051978;28;20231;-71
2023/01/30 10:14:12;;;;;;;3.40;3.10;;;;;;;3.45;92.29;98424.06;5051164;28;20213;-71
2023/01/30 10:16:48;;;;;;;3.93;3.10;;;;;;;3.42;92.25;98406.00;5056546;28;20268;-71
2023/01/30 10:19:23;;;;;;;2.60;2.40;;;;;;;3.32;92.59;98403.56;5055802;28;20189;-71
2023/01/30 10:22:01;;;;;;;3.47;2.57;;;;;;;3.28;93.27;98402.25;5055780;28;20224;-71
2023/01/30 10:24:28;;;;;;;4.70;2.50;;;;;;;3.27;92.64;98391.88;5055730;28;20190;-71
2023/01/30 10:26:55;;;;;;;3.07;2.37;;;;;;;3.29;93.03;98396.00;5056612;28;20676;-71
2023/01/30 10:29:28;;;;;;;3.00;2.53;;;;;;;3.32;93.04;98407.97;5055528;28;20219;-70
2023/01/30 10:32:15;;;;;;;3.33;2.63;;;;;;;3.30;93.29;98415.22;5056503;28;20225;-71
2023/01/30 10:34:46;;;;;;;4.80;2.80;;;;;;;3.18;95.20;98406.84;5056704;28;20193;-71
2023/01/30 10:37:39;;;;;;;2.93;2.67;;;;;;;3.25;94.12;98402.56;5056145;28;20691;-71
2023/01/30 10:40:34;;;;;;;3.47;2.60;;;;;;;3.31;94.19;98417.69;5056204;28;20284;-71
2023/01/30 10:43:36;;;;;;;3.77;2.60;;;;;;;3.30;94.35;98404.72;5044920;28;20228;-71
2023/01/30 10:46:36;;;;;;;2.30;2.10;;;;;;;3.38;94.62;98394.16;5047608;28;20296;-71
2023/01/30 10:49:11;;;;;;;4.10;2.33;;;;;;;3.31;95.52;98398.47;5056417;28;20207;-71
2023/01/30 10:52:18;;;;;;;2.30;2.10;;;;;;;3.35;97.04;98391.91;5055947;28;20714;-70
2023/01/30 10:54:54;;;;;;;2.33;2.10;;;;;;;3.35;98.29;98397.16;5045078;28;20254;-71
2023/01/30 10:57:45;;;;;;;2.03;1.77;;;;;;;3.31;100.00;98393.22;5055811;28;20225;-71
2023/01/30 11:00:46;;;;;;;1.77;1.63;;;;;;;3.32;100.00;98387.78;5054886;28;20607;-71
2023/01/30 11:03:52;;;;;;;1.60;1.50;;;;;;;3.37;100.00;98387.28;5048741;28;20221;-71
2023/01/30 11:06:23;;;;;;;1.30;1.20;;;;;;;3.36;100.00;98389.09;5055778;28;20651;-71
2023/01/30 11:08:50;;;;;;;1.50;1.40;;;;;;;3.42;100.00;98384.97;5056162;28;20215;-71
2023/01/30 11:11:47;;;;;;;1.73;1.50;;;;;;;3.45;100.00;98400.41;5055978;28;20209;-71
2023/01/30 11:14:14;;;;;;;1.43;1.13;;;;;;;3.47;100.00;98395.81;5056533;28;20197;-71
2023/01/30 11:17:01;;;;;;;1.67;1.57;;;;;;;3.39;100.00;98399.25;5056059;28;20209;-71
2023/01/30 11:19:36;;;;;;;2.43;1.50;;;;;;;3.35;100.00;98390.06;5055998;28;20201;-71
2023/01/30 11:22:04;;;;;;;1.70;1.60;;;;;;;3.34;100.00;98387.63;5055613;28;20228;-71
2023/01/30 11:24:38;;;;;;;1.47;1.37;;;;;;;3.34;100.00;98390.25;5055084;28;20205;-70
2023/01/30 11:27:20;;;;;;;1.53;1.37;;;;;;;3.39;100.00;98393.22;5055049;28;20633;-71
2023/01/30 11:29:49;;;;;;;1.40;1.30;;;;;;;3.37;100.00;98384.66;5055456;28;20201;-71
2023/01/30 11:32:27;;;;;;;1.83;1.57;;;;;;;3.36;100.00;98385.66;5055384;28;20221;-70
2023/01/30 11:35:08;;;;;;;1.60;1.50;;;;;;;3.36;100.00;98389.09;5055706;28;20185;-70
2023/01/30 11:37:40;;;;;;;1.70;1.60;;;;;;;3.40;100.00;98393.06;5063223;28;20225;-70
2023/01/30 11:40:22;;;;;;;2.17;1.80;;;;;;;3.25;100.00;98394.69;5055111;28;20655;-70
2023/01/30 11:42:51;;;;;;;2.43;1.70;;;;;;;3.13;100.00;98392.56;5054984;28;20236;-70
2023/01/30 11:45:19;;;;;;;2.20;1.87;;;;;;;3.05;100.00;98413.56;5055053;28;20205;-71
2023/01/30 11:47:56;;;;;;;2.97;2.00;;;;;;;3.02;100.00;98408.66;5054831;28;20205;-71
2023/01/30 11:50:27;;;;;;;2.23;1.97;;;;;;;2.92;100.00;98410.59;5054169;28;20189;-71
2023/01/30 11:52:54;;;;;;;3.23;2.63;;;;;;;2.86;100.00;98414.69;5055145;28;20237;-71